createdAt,value
2023-01-21T00:02:14.552Z,102000.72
2023-01-21T00:04:44.228Z,101995.19
2023-01-21T00:07:13.866Z,101993.19
2023-01-21T00:09:43.525Z,102019.44
2023-01-21T00:12:13.172Z,102014.66
2023-01-21T00:14:46.079Z,102026.34
2023-01-21T00:17:15.717Z,101938.72
2023-01-21T00:19:45.335Z,102036.00
2023-01-21T00:22:15.054Z,102036.59
2023-01-21T00:24:44.686Z,101986.41
2023-01-21T00:27:14.311Z,102034.00
2023-01-21T00:29:46.583Z,102040.28
2023-01-21T00:32:16.291Z,102027.72
2023-01-21T00:34:46.136Z,102044.03
2023-01-21T00:37:15.780Z,102034.59
2023-01-21T00:39:45.435Z,102054.97
2023-01-21T00:42:15.218Z,102050.03
2023-01-21T00:44:47.447Z,102059.97
2023-01-21T00:47:17.163Z,102052.16
2023-01-21T00:49:46.792Z,102072.16
2023-01-21T00:52:16.449Z,102074.75
2023-01-21T00:54:46.072Z,102067.06
2023-01-21T00:57:16.322Z,102067.78
2023-01-21T00:59:48.784Z,102076.53
2023-01-21T01:02:18.466Z,102053.13
2023-01-21T01:04:49.054Z,102027.75
2023-01-21T01:07:18.678Z,102083.53
2023-01-21T01:09:48.292Z,102096.97
2023-01-21T01:12:17.955Z,102085.03
2023-01-21T01:14:50.263Z,102117.06
2023-01-21T01:17:19.927Z,102105.38
2023-01-21T01:19:49.587Z,102093.31
2023-01-21T01:22:19.200Z,102129.00
2023-01-21T01:24:49.025Z,102129.53
2023-01-21T01:27:18.809Z,102128.41
2023-01-21T01:29:51.370Z,102140.56
2023-01-21T01:32:21.000Z,102149.09
2023-01-21T01:34:50.655Z,102153.09
2023-01-21T01:37:20.316Z,102157.63
2023-01-21T01:39:49.920Z,102162.09
2023-01-21T01:42:19.614Z,102153.03
2023-01-21T01:45:14.699Z,102161.56
2023-01-21T01:47:48.040Z,102160.78
2023-01-21T01:50:22.382Z,102165.03
2023-01-21T01:52:52.052Z,102175.19
2023-01-21T01:55:21.852Z,102164.97
2023-01-21T01:57:55.434Z,102187.13
2023-01-21T02:00:29.107Z,102192.91
2023-01-21T02:03:12.035Z,102190.38
2023-01-21T02:05:45.021Z,102177.41
2023-01-21T02:08:14.805Z,102181.78
2023-01-21T02:10:44.443Z,102186.75
2023-01-21T02:13:15.043Z,102206.31
2023-01-21T02:16:02.080Z,102179.56
2023-01-21T02:18:41.073Z,102213.78
2023-01-21T02:21:55.835Z,102220.69
2023-01-21T02:25:00.972Z,102221.47
2023-01-21T02:27:54.537Z,102217.69
2023-01-21T02:30:44.575Z,102197.63
2023-01-21T02:33:39.211Z,102171.75
2023-01-21T02:36:33.111Z,102221.28
2023-01-21T02:39:10.501Z,102237.13
2023-01-21T02:41:52.616Z,102229.25
2023-01-21T02:44:30.401Z,102221.06
2023-01-21T02:47:08.689Z,102229.59
2023-01-21T02:49:45.026Z,102237.91
2023-01-21T02:52:21.216Z,102231.84
2023-01-21T02:54:56.919Z,102241.69
2023-01-21T02:57:44.728Z,102235.63
2023-01-21T03:00:20.621Z,102214.03
2023-01-21T03:03:21.713Z,102253.13
2023-01-21T03:06:26.867Z,102246.00
2023-01-21T03:09:04.862Z,102249.75
2023-01-21T03:11:35.068Z,102240.13
2023-01-21T03:14:26.141Z,102250.94
2023-01-21T03:17:00.659Z,102240.16
2023-01-21T03:19:38.408Z,102256.50
2023-01-21T03:22:13.991Z,102251.31
2023-01-21T03:24:50.700Z,102226.69
2023-01-21T03:27:25.338Z,102251.47
2023-01-21T03:30:00.416Z,102251.72
2023-01-21T03:32:33.967Z,102257.63
2023-01-21T03:35:06.085Z,102208.84
2023-01-21T03:37:43.127Z,102263.22
2023-01-21T03:40:24.931Z,102272.50
2023-01-21T03:42:56.481Z,102259.81
2023-01-21T03:45:40.036Z,102251.19
2023-01-21T03:48:21.818Z,102254.09
2023-01-21T03:50:58.096Z,102265.53
2023-01-21T03:53:28.457Z,102262.00
2023-01-21T03:56:00.756Z,102251.22
2023-01-21T03:58:31.281Z,102259.53
2023-01-21T04:01:00.941Z,102230.47
2023-01-21T04:03:30.741Z,102266.59
2023-01-21T04:06:00.337Z,102258.53
2023-01-21T04:08:29.999Z,102265.22
2023-01-21T04:11:02.239Z,102269.88
2023-01-21T04:13:31.929Z,102263.81
2023-01-21T04:16:01.568Z,102273.00
2023-01-21T04:18:31.244Z,102270.09
2023-01-21T04:21:01.344Z,102252.13
2023-01-21T04:23:31.072Z,102207.75
2023-01-21T04:26:03.354Z,102226.31
2023-01-21T04:28:33.007Z,102258.28
2023-01-21T04:31:02.709Z,102256.28
2023-01-21T04:33:32.347Z,102259.81
2023-01-21T04:36:03.020Z,102269.50
2023-01-21T04:38:32.715Z,102276.16
2023-01-21T04:41:04.921Z,102270.25
2023-01-21T04:43:34.578Z,102265.22
2023-01-21T04:46:04.331Z,102273.50
2023-01-21T04:48:34.127Z,102196.88
2023-01-21T04:51:03.812Z,102262.78
2023-01-21T04:53:33.468Z,102286.06
2023-01-21T04:56:05.709Z,102270.47
2023-01-21T04:58:35.387Z,102293.44
2023-01-21T05:01:05.089Z,102294.63
2023-01-21T05:03:34.914Z,102267.31
2023-01-21T05:06:04.651Z,102239.91
2023-01-21T05:08:34.325Z,102282.78
2023-01-21T05:11:06.594Z,102292.22
2023-01-21T05:13:36.331Z,102300.03
2023-01-21T05:16:09.930Z,102287.34
2023-01-21T05:18:40.843Z,102296.16
2023-01-21T05:21:11.139Z,102305.59
2023-01-21T05:23:40.839Z,102311.88
2023-01-21T05:26:13.079Z,102305.69
2023-01-21T05:28:42.779Z,102291.50
2023-01-21T05:31:12.491Z,102302.59
2023-01-21T05:33:44.018Z,102312.28
2023-01-21T05:36:13.789Z,102308.25
2023-01-21T05:38:43.445Z,102308.72
2023-01-21T05:41:15.687Z,102286.97
2023-01-21T05:43:45.369Z,102294.38
2023-01-21T05:46:15.244Z,102329.63
2023-01-21T05:48:45.007Z,102326.84
2023-01-21T05:51:14.839Z,102340.81
2023-01-21T05:53:44.563Z,102343.16
2023-01-21T05:56:17.057Z,102343.91
2023-01-21T05:58:46.805Z,102355.13
2023-01-21T06:01:16.610Z,102349.31
2023-01-21T06:03:46.317Z,102341.94
2023-01-21T06:06:16.008Z,102353.09
2023-01-21T06:08:45.681Z,102355.16
2023-01-21T06:11:17.953Z,102369.97
2023-01-21T06:13:47.637Z,102360.94
2023-01-21T06:16:17.277Z,102367.97
2023-01-21T06:18:46.969Z,102360.94
2023-01-21T06:21:16.656Z,102362.41
2023-01-21T06:23:46.305Z,102374.63
2023-01-21T06:26:18.520Z,102385.59
2023-01-21T06:28:48.210Z,102380.41
2023-01-21T06:31:17.982Z,102389.31
2023-01-21T06:33:47.693Z,102379.03
2023-01-21T06:36:17.367Z,102388.31
2023-01-21T06:38:47.053Z,102389.44
2023-01-21T06:41:19.302Z,102395.63
2023-01-21T06:43:48.964Z,102398.41
2023-01-21T06:46:18.698Z,102384.31
2023-01-21T06:48:48.480Z,102402.66
2023-01-21T06:51:18.169Z,102397.03
2023-01-21T06:53:47.893Z,102395.38
2023-01-21T06:56:20.368Z,102404.44
2023-01-21T06:58:50.037Z,102364.38
2023-01-21T07:01:19.680Z,102419.66
2023-01-21T07:03:49.325Z,102406.72
2023-01-21T07:06:19.002Z,102413.38
2023-01-21T07:08:48.743Z,102384.81
2023-01-21T07:11:21.020Z,102431.38
2023-01-21T07:13:50.682Z,102429.50
2023-01-21T07:16:20.356Z,102422.81
2023-01-21T07:18:50.046Z,102440.38
2023-01-21T07:21:19.958Z,102433.34
2023-01-21T07:23:49.598Z,102438.38
2023-01-21T07:26:21.858Z,102439.91
2023-01-21T07:28:51.645Z,102434.47
2023-01-21T07:31:21.444Z,102442.44
2023-01-21T07:33:51.263Z,102429.72
2023-01-21T07:36:20.999Z,102434.13
2023-01-21T07:38:50.656Z,102457.28
2023-01-21T07:41:22.974Z,102453.78
2023-01-21T07:43:53.379Z,102441.69
2023-01-21T07:46:24.187Z,102465.88
2023-01-21T07:48:54.820Z,102470.91
2023-01-21T07:51:25.092Z,102478.81
2023-01-21T07:53:54.757Z,102467.13
2023-01-21T07:56:27.601Z,102466.09
2023-01-21T07:58:57.404Z,102460.31
2023-01-21T08:01:31.023Z,102485.25
2023-01-21T08:04:01.068Z,102490.91
2023-01-21T08:06:30.724Z,102492.81
2023-01-21T08:09:00.356Z,102492.19
2023-01-21T08:11:32.593Z,102487.03
2023-01-21T08:14:02.269Z,102457.03
2023-01-21T08:16:31.957Z,102484.13
2023-01-21T08:19:01.625Z,102474.94
2023-01-21T08:21:31.245Z,102484.38
2023-01-21T08:24:00.929Z,102490.53
2023-01-21T08:26:33.165Z,102488.16
2023-01-21T08:29:02.839Z,102448.94
2023-01-21T08:31:32.614Z,102495.56
2023-01-21T08:34:02.317Z,102502.38
2023-01-21T08:36:32.001Z,102502.00
2023-01-21T08:39:02.090Z,102513.94
2023-01-21T08:41:34.635Z,102494.97
2023-01-21T08:44:04.320Z,102509.22
2023-01-21T08:46:34.184Z,102485.50
2023-01-21T08:49:03.933Z,102488.91
2023-01-21T08:51:33.591Z,102513.38
2023-01-21T08:54:04.619Z,102518.78
2023-01-21T08:56:37.382Z,102530.38
2023-01-21T08:59:07.092Z,102523.38
2023-01-21T09:01:40.870Z,102515.09
2023-01-21T09:04:11.494Z,102538.91
2023-01-21T09:06:41.164Z,102515.34
2023-01-21T09:09:13.954Z,102520.00
2023-01-21T09:11:46.373Z,102546.59
2023-01-21T09:14:16.059Z,102562.97
2023-01-21T09:16:45.764Z,102540.44
2023-01-21T09:19:15.442Z,102564.22
2023-01-21T09:21:45.075Z,102564.59
2023-01-21T09:24:14.722Z,102561.56
2023-01-21T09:26:47.642Z,102563.88
2023-01-21T09:29:17.339Z,102571.41
2023-01-21T09:31:47.028Z,102576.91
2023-01-21T09:34:16.816Z,102575.34
2023-01-21T09:36:46.434Z,102569.53
2023-01-21T09:39:16.077Z,102594.38
2023-01-21T09:41:52.770Z,102594.03
2023-01-21T09:44:28.052Z,102593.28
2023-01-21T09:47:03.343Z,102591.22
2023-01-21T09:49:37.602Z,102604.50
2023-01-21T09:52:25.345Z,102589.41
2023-01-21T09:54:55.173Z,102609.13
2023-01-21T09:57:46.357Z,102607.38
2023-01-21T10:00:36.310Z,102613.31
2023-01-21T10:03:17.506Z,102616.22
2023-01-21T10:06:16.590Z,102625.53
2023-01-21T10:09:02.378Z,102622.47
2023-01-21T10:11:45.958Z,102575.56
2023-01-21T10:14:39.633Z,102623.63
2023-01-21T10:17:16.939Z,102625.63
2023-01-21T10:19:54.375Z,102628.00
2023-01-21T10:22:28.512Z,102613.88
2023-01-21T10:25:03.011Z,102628.00
2023-01-21T10:27:38.127Z,102602.13
2023-01-21T10:30:24.728Z,102640.72
2023-01-21T10:32:57.158Z,102600.72
2023-01-21T10:35:54.983Z,102631.63
2023-01-21T10:38:32.560Z,102572.94
2023-01-21T10:41:11.358Z,102631.97
2023-01-21T10:43:50.287Z,102623.44
2023-01-21T10:46:29.168Z,102620.91
2023-01-21T10:49:05.927Z,102626.06
2023-01-21T10:51:45.469Z,102617.16
2023-01-21T10:54:24.977Z,102619.19
2023-01-21T10:57:03.271Z,102616.22
2023-01-21T10:59:36.798Z,102608.94
2023-01-21T11:02:23.200Z,102607.94
2023-01-21T11:04:53.976Z,102590.81
2023-01-21T11:07:25.069Z,102602.53
2023-01-21T11:09:55.513Z,102611.63
2023-01-21T11:12:25.167Z,102606.22
2023-01-21T11:14:58.433Z,102593.63
2023-01-21T11:17:36.624Z,102603.84
2023-01-21T11:20:10.116Z,102586.19
2023-01-21T11:22:46.367Z,102609.38
2023-01-21T11:25:28.334Z,102595.75
2023-01-21T11:27:58.029Z,102588.84
2023-01-21T11:30:49.571Z,102588.34
2023-01-21T11:33:31.474Z,102551.06
2023-01-21T11:36:12.990Z,102596.28
2023-01-21T11:38:43.194Z,102608.28
2023-01-21T11:41:21.764Z,102588.72
2023-01-21T11:43:54.645Z,102577.41
2023-01-21T11:46:31.417Z,102586.13
2023-01-21T11:49:22.571Z,102594.81
2023-01-21T11:51:52.652Z,102593.53
2023-01-21T11:54:23.756Z,102602.00
2023-01-21T11:56:59.517Z,102596.06
2023-01-21T11:59:34.314Z,102584.72
2023-01-21T12:02:10.839Z,102562.63
2023-01-21T12:04:48.470Z,102581.81
2023-01-21T12:07:21.694Z,102613.19
2023-01-21T12:09:57.059Z,102606.09
2023-01-21T12:12:37.666Z,102608.09
2023-01-21T12:15:18.246Z,102604.19
2023-01-21T12:17:59.958Z,102598.91
2023-01-21T12:20:42.028Z,102611.03
2023-01-21T12:23:31.510Z,102597.38
2023-01-21T12:26:15.971Z,102614.03
2023-01-21T12:31:42.828Z,102603.03
2023-01-21T12:34:19.380Z,102612.72
2023-01-21T12:36:56.701Z,102600.25
2023-01-21T12:39:30.122Z,102610.47
2023-01-21T12:42:08.888Z,102611.47
2023-01-21T12:44:45.781Z,102601.66
2023-01-21T12:47:24.563Z,102602.19
2023-01-21T12:50:18.029Z,102578.84
2023-01-21T12:52:59.962Z,102596.50
2023-01-21T12:55:39.715Z,102585.19
2023-01-21T12:58:14.276Z,102599.94
2023-01-21T13:00:47.851Z,102585.63
2023-01-21T13:03:26.185Z,102591.41
2023-01-21T13:06:00.672Z,102542.00
2023-01-21T13:08:46.221Z,102584.97
2023-01-21T13:11:22.203Z,102575.53
2023-01-21T13:13:59.132Z,102581.47
2023-01-21T13:16:29.244Z,102511.38
2023-01-21T13:18:59.055Z,102564.19
2023-01-21T13:21:38.890Z,102581.97
2023-01-21T13:24:18.501Z,102556.75
2023-01-21T13:26:55.828Z,102585.84
2023-01-21T13:29:34.767Z,102582.44
2023-01-21T13:32:23.505Z,102587.25
2023-01-21T13:35:06.721Z,102582.81
2023-01-21T13:37:42.285Z,102533.81
2023-01-21T13:40:28.092Z,102578.28
2023-01-21T13:43:09.705Z,102582.56
2023-01-21T13:45:51.405Z,102526.47
2023-01-21T13:48:49.566Z,102580.06
2023-01-21T13:51:35.598Z,102559.38
2023-01-21T13:54:30.096Z,102588.88
2023-01-21T13:57:16.016Z,102577.53
2023-01-21T13:59:52.255Z,102578.41
2023-01-21T14:02:26.773Z,102595.53
2023-01-21T14:05:02.187Z,102574.63
2023-01-21T14:07:36.664Z,102569.47
2023-01-21T14:10:16.152Z,102593.78
2023-01-21T14:13:07.581Z,102575.09
2023-01-21T14:15:51.351Z,102584.06
2023-01-21T14:18:41.151Z,102591.22
2023-01-21T14:21:22.329Z,102589.59
2023-01-21T14:24:08.339Z,102578.50
2023-01-21T14:26:49.639Z,102592.63
2023-01-21T14:29:29.352Z,102586.31
2023-01-21T14:32:06.563Z,102591.22
2023-01-21T14:34:47.672Z,102588.19
2023-01-21T14:37:20.855Z,102580.91
2023-01-21T14:40:01.015Z,102575.50
2023-01-21T14:42:44.977Z,102587.31
2023-01-21T14:45:20.482Z,102588.13
2023-01-21T14:47:53.842Z,102584.34
2023-01-21T14:50:49.489Z,102579.53
2023-01-21T14:53:26.155Z,102575.22
2023-01-21T14:56:13.106Z,102560.09
2023-01-21T14:58:49.161Z,102521.53
2023-01-21T15:01:34.772Z,102574.97
2023-01-21T15:04:07.856Z,102573.81
2023-01-21T15:06:42.583Z,102560.09
2023-01-21T15:09:24.064Z,102573.38
2023-01-21T15:11:58.632Z,102580.13
2023-01-21T15:14:31.228Z,102560.75
2023-01-21T15:17:03.971Z,102577.88
2023-01-21T15:19:36.039Z,102566.16
2023-01-21T15:22:24.701Z,102573.97
2023-01-21T15:25:27.014Z,102578.47
2023-01-21T15:28:40.102Z,102573.25
2023-01-21T15:31:12.183Z,102580.81
2023-01-21T15:33:49.727Z,102578.25
2023-01-21T15:36:25.875Z,102575.00
2023-01-21T15:39:02.029Z,102576.72
2023-01-21T15:41:44.943Z,102574.84
2023-01-21T15:44:30.050Z,102576.47
2023-01-21T15:47:10.756Z,102557.78
2023-01-21T15:49:54.763Z,102562.44
2023-01-21T15:52:36.057Z,102564.06
2023-01-21T15:55:20.238Z,102574.13
2023-01-21T15:57:57.852Z,102571.88
2023-01-21T16:00:35.913Z,102574.38
2023-01-21T16:03:22.805Z,102577.41
2023-01-21T16:06:04.678Z,102562.06
2023-01-21T16:08:53.538Z,102573.97
2023-01-21T16:11:42.086Z,102582.19
2023-01-21T16:14:25.793Z,102586.97
2023-01-21T16:17:07.254Z,102593.50
2023-01-21T16:19:40.857Z,102592.84
2023-01-21T16:22:15.295Z,102598.00
2023-01-21T16:24:49.764Z,102594.59
2023-01-21T16:27:21.404Z,102595.22
2023-01-21T16:29:57.070Z,102600.09
2023-01-21T16:32:27.191Z,102589.84
2023-01-21T16:34:57.277Z,102592.16
2023-01-21T16:37:31.262Z,102574.38
2023-01-21T16:40:23.405Z,102595.69
2023-01-21T16:43:09.077Z,102584.22
2023-01-21T16:45:39.535Z,102592.03
2023-01-21T16:48:24.162Z,102593.66
2023-01-21T16:50:55.058Z,102575.47
2023-01-21T16:53:28.239Z,102576.53
2023-01-21T16:55:59.606Z,102592.41
2023-01-21T16:58:32.593Z,102589.16
2023-01-21T17:01:14.107Z,102601.88
2023-01-21T17:03:44.583Z,102609.97
2023-01-21T17:06:18.420Z,102587.69
2023-01-21T17:08:54.533Z,102600.72
2023-01-21T17:11:25.373Z,102607.50
2023-01-21T17:13:55.496Z,102602.22
2023-01-21T17:16:29.395Z,102609.69
2023-01-21T17:19:02.750Z,102611.69
2023-01-21T17:21:39.781Z,102600.09
2023-01-21T17:24:25.307Z,102608.06
2023-01-21T17:26:58.266Z,102588.09
2023-01-21T17:29:30.930Z,102619.16
2023-01-21T17:32:02.227Z,102622.41
2023-01-21T17:34:33.651Z,102619.78
2023-01-21T17:37:05.662Z,102617.50
2023-01-21T17:40:03.423Z,102606.28
2023-01-21T17:42:40.546Z,102605.88
2023-01-21T17:45:21.010Z,102553.81
2023-01-21T17:48:08.617Z,102605.94
2023-01-21T17:50:39.992Z,102601.63
2023-01-21T17:53:19.941Z,102605.81
2023-01-21T17:56:02.260Z,102610.34
2023-01-21T17:58:47.027Z,102608.53
2023-01-21T18:01:18.088Z,102602.78
2023-01-21T18:03:47.813Z,102607.16
2023-01-21T18:06:23.192Z,102610.00
2023-01-21T18:08:54.177Z,102614.75
2023-01-21T18:11:26.636Z,102619.53
2023-01-21T18:13:56.248Z,102609.81
2023-01-21T18:16:25.922Z,102606.22
2023-01-21T18:18:56.333Z,102588.22
2023-01-21T18:21:25.965Z,102594.09
2023-01-21T18:23:55.966Z,102617.94
2023-01-21T18:26:35.026Z,102610.88
2023-01-21T18:29:04.652Z,102607.00
2023-01-21T18:31:34.382Z,102607.00
2023-01-21T18:34:04.302Z,102609.13
2023-01-21T18:36:34.375Z,102552.63
2023-01-21T18:39:03.968Z,102617.19
2023-01-21T18:41:36.131Z,102612.28
2023-01-21T18:44:05.836Z,102612.56
2023-01-21T18:46:39.604Z,102608.75
2023-01-21T18:49:15.178Z,102598.31
2023-01-21T18:51:45.045Z,102626.78
2023-01-21T18:54:16.614Z,102617.69
2023-01-21T18:56:49.638Z,102618.47
2023-01-21T18:59:22.427Z,102587.44
2023-01-21T19:01:52.137Z,102558.47
2023-01-21T19:04:22.292Z,102598.81
2023-01-21T19:06:55.510Z,102570.84
2023-01-21T19:09:27.132Z,102603.41
2023-01-21T19:11:59.341Z,102590.53
2023-01-21T19:14:28.985Z,102592.81
2023-01-21T19:16:58.627Z,102607.56
2023-01-21T19:19:28.675Z,102609.22
2023-01-21T19:21:58.319Z,102612.47
2023-01-21T19:24:28.215Z,102614.63
2023-01-21T19:27:00.973Z,102611.97
2023-01-21T19:29:31.658Z,102586.38
2023-01-21T19:32:01.642Z,102612.47
2023-01-21T19:34:31.430Z,102595.59
2023-01-21T19:37:01.732Z,102590.81
2023-01-21T19:39:32.882Z,102606.19
2023-01-21T19:42:08.620Z,102601.44
2023-01-21T19:44:39.351Z,102554.66
2023-01-21T19:47:16.921Z,102600.41
2023-01-21T19:49:46.790Z,102592.34
2023-01-21T19:52:17.522Z,102585.66
2023-01-21T19:54:47.308Z,102588.19
2023-01-21T19:57:20.350Z,102590.84
2023-01-21T19:59:53.208Z,102591.75
2023-01-21T20:02:23.048Z,102528.84
2023-01-21T20:04:52.878Z,102584.25
2023-01-21T20:07:22.966Z,102577.94
2023-01-21T20:09:53.093Z,102567.63
2023-01-21T20:12:25.289Z,102586.28
2023-01-21T20:14:54.933Z,102578.97
2023-01-21T20:17:24.715Z,102536.72
2023-01-21T20:19:54.357Z,102573.63
2023-01-21T20:22:25.702Z,102585.38
2023-01-21T20:24:55.684Z,102570.88
2023-01-21T20:27:27.892Z,102558.06
2023-01-21T20:30:14.811Z,102562.28
2023-01-21T20:32:46.075Z,102568.22
2023-01-21T20:35:15.944Z,102583.25
2023-01-21T20:37:48.972Z,102538.59
2023-01-21T20:40:21.664Z,102600.72
2023-01-21T20:42:55.097Z,102588.50
2023-01-21T20:45:29.625Z,102588.97
2023-01-21T20:48:02.272Z,102588.34
2023-01-21T20:50:35.512Z,102585.19
2023-01-21T20:53:06.359Z,102592.50
2023-01-21T20:55:36.400Z,102540.69
2023-01-21T20:58:09.359Z,102581.94
2023-01-21T21:00:39.607Z,102581.16
2023-01-21T21:03:09.839Z,102572.97
2023-01-21T21:05:39.843Z,102535.88
2023-01-21T21:08:09.496Z,102576.09
2023-01-21T21:10:39.534Z,102562.75
2023-01-21T21:13:13.062Z,102587.81
2023-01-21T21:15:46.315Z,102578.38
2023-01-21T21:18:17.042Z,102577.84
2023-01-21T21:20:47.176Z,102558.38
2023-01-21T21:23:17.683Z,102567.78
2023-01-21T21:25:49.445Z,102563.25
2023-01-21T21:28:21.954Z,102557.94
2023-01-21T21:30:51.997Z,102568.91
2023-01-21T21:33:24.153Z,102574.06
2023-01-21T21:35:55.733Z,102547.84
2023-01-21T21:38:26.214Z,102576.72
2023-01-21T21:40:57.720Z,102572.56
2023-01-21T21:43:38.911Z,102573.88
2023-01-21T21:46:22.527Z,102571.25
2023-01-21T21:48:53.753Z,102581.31
2023-01-21T21:51:24.418Z,102588.63
2023-01-21T21:53:54.809Z,102557.91
2023-01-21T21:56:26.036Z,102586.50
2023-01-21T21:58:58.729Z,102554.50
2023-01-21T22:01:31.288Z,102573.47
2023-01-21T22:04:02.121Z,102569.47
2023-01-21T22:06:32.589Z,102530.91
2023-01-21T22:09:02.681Z,102575.56
2023-01-21T22:11:32.651Z,102576.84
2023-01-21T22:14:05.356Z,102553.91
2023-01-21T22:16:35.400Z,102579.44
2023-01-21T22:19:05.162Z,102572.03
2023-01-21T22:21:36.631Z,102561.25
2023-01-21T22:24:08.440Z,102584.94
2023-01-21T22:26:38.494Z,102575.75
2023-01-21T22:29:11.929Z,102548.75
2023-01-21T22:31:41.738Z,102565.41
2023-01-21T22:34:12.625Z,102559.44
2023-01-21T22:36:47.003Z,102552.88
2023-01-21T22:39:17.071Z,102546.09
2023-01-21T22:41:46.985Z,102550.66
2023-01-21T22:44:19.336Z,102546.50
2023-01-21T22:46:48.998Z,102534.63
2023-01-21T22:49:18.740Z,102558.22
2023-01-21T22:51:48.330Z,102563.47
2023-01-21T22:54:18.287Z,102552.88
2023-01-21T22:56:52.843Z,102562.47
2023-01-21T22:59:25.492Z,102515.06
2023-01-21T23:01:55.125Z,102560.06
2023-01-21T23:04:24.756Z,102530.63
2023-01-21T23:06:55.159Z,102525.84
2023-01-21T23:09:24.878Z,102519.44
2023-01-21T23:11:54.956Z,102526.47
2023-01-21T23:14:27.217Z,102523.84
2023-01-21T23:16:56.866Z,102542.97
2023-01-21T23:19:26.792Z,102545.81
2023-01-21T23:21:56.533Z,102510.44
2023-01-21T23:24:26.465Z,102553.94
2023-01-21T23:26:56.145Z,102547.75
2023-01-21T23:29:28.428Z,102547.00
2023-01-21T23:32:00.313Z,102544.63
2023-01-21T23:34:30.157Z,102553.47
2023-01-21T23:36:59.777Z,102532.47
2023-01-21T23:39:29.375Z,102546.47
2023-01-21T23:41:58.999Z,102539.03
2023-01-21T23:44:31.242Z,102543.69
2023-01-21T23:47:00.862Z,102535.91
2023-01-21T23:49:30.496Z,102519.22
2023-01-21T23:52:00.223Z,102511.91
2023-01-21T23:54:29.844Z,102522.84
2023-01-21T23:56:59.507Z,102511.22
2023-01-21T23:59:31.757Z,102534.25
